createdAt,value
2017-08-05T00:02:17.495Z,14.50
2017-08-05T00:04:45.039Z,14.40
2017-08-05T00:07:12.554Z,14.40
2017-08-05T00:09:40.095Z,14.40
2017-08-05T00:12:07.610Z,14.50
2017-08-05T00:14:35.145Z,14.50
2017-08-05T00:17:02.663Z,14.50
2017-08-05T00:19:30.971Z,14.30
2017-08-05T00:21:59.259Z,14.20
2017-08-05T00:24:27.539Z,14.00
2017-08-05T00:26:55.071Z,14.00
2017-08-05T00:29:23.351Z,14.10
2017-08-05T00:31:50.889Z,14.00
2017-08-05T00:34:18.410Z,14.10
2017-08-05T00:36:45.955Z,14.00
2017-08-05T00:39:13.470Z,14.00
2017-08-05T00:41:41.003Z,13.80
2017-08-05T00:44:08.517Z,13.70
2017-08-05T00:46:36.065Z,13.70
2017-08-05T00:49:03.587Z,13.70
2017-08-05T00:51:31.131Z,13.80
2017-08-05T00:53:58.650Z,13.90
2017-08-05T00:56:26.177Z,13.80
2017-08-05T00:58:53.711Z,13.60
2017-08-05T01:01:21.998Z,13.40
2017-08-05T01:03:50.302Z,13.30
2017-08-05T01:06:17.843Z,13.30
2017-08-05T01:08:45.382Z,13.30
2017-08-05T01:11:12.902Z,13.40
2017-08-05T01:13:40.443Z,13.50
2017-08-05T01:16:07.961Z,13.60
2017-08-05T01:18:36.259Z,13.70
2017-08-05T01:21:03.773Z,13.70
2017-08-05T01:23:31.316Z,13.70
2017-08-05T01:25:59.595Z,13.80
2017-08-05T01:28:27.875Z,13.80
2017-08-05T01:30:56.179Z,13.70
2017-08-05T01:33:23.707Z,13.70
2017-08-05T01:35:51.237Z,13.60
2017-08-05T01:38:19.530Z,13.40
2017-08-05T01:40:47.075Z,13.40
2017-08-05T01:43:14.586Z,13.40
2017-08-05T01:45:42.130Z,13.30
2017-08-05T01:48:09.643Z,13.20
2017-08-05T01:50:37.179Z,13.20
2017-08-05T01:53:04.707Z,13.30
2017-08-05T01:55:32.249Z,13.30
2017-08-05T01:57:59.766Z,13.40
2017-08-05T02:00:28.055Z,13.60
2017-08-05T02:02:55.597Z,13.50
2017-08-05T02:05:23.878Z,13.60
2017-08-05T02:07:51.414Z,13.60
2017-08-05T02:10:18.927Z,13.60
2017-08-05T02:12:47.230Z,13.40
2017-08-05T02:15:14.750Z,13.40
2017-08-05T02:17:42.286Z,13.40
2017-08-05T02:20:09.802Z,13.40
2017-08-05T02:22:37.338Z,13.20
2017-08-05T02:25:05.624Z,13.00
2017-08-05T02:27:33.924Z,12.90
2017-08-05T02:30:01.440Z,12.90
2017-08-05T02:32:28.963Z,13.00
2017-08-05T02:34:56.498Z,12.90
2017-08-05T02:37:24.013Z,12.80
2017-08-05T02:39:51.553Z,12.70
2017-08-05T02:42:19.065Z,12.70
2017-08-05T02:44:46.602Z,12.80
2017-08-05T02:47:14.118Z,12.90
2017-08-05T02:49:41.659Z,13.00
2017-08-05T02:52:09.179Z,13.00
2017-08-05T02:54:37.534Z,13.10
2017-08-05T02:57:05.055Z,13.00
2017-08-05T02:59:32.575Z,13.00
2017-08-05T03:02:00.883Z,13.00
2017-08-05T03:04:28.394Z,13.00
2017-08-05T03:06:55.934Z,12.90
2017-08-05T03:09:23.455Z,12.90
2017-08-05T03:11:51.755Z,12.60
2017-08-05T03:14:19.281Z,12.60
2017-08-05T03:16:46.814Z,12.50
2017-08-05T03:19:14.326Z,12.50
2017-08-05T03:21:41.866Z,12.50
2017-08-05T03:24:10.151Z,12.60
2017-08-05T03:26:38.455Z,12.70
2017-08-05T03:29:05.973Z,12.70
2017-08-05T03:31:33.519Z,12.80
2017-08-05T03:34:01.041Z,13.00
2017-08-05T03:36:28.555Z,13.00
2017-08-05T03:38:56.859Z,13.20
2017-08-05T03:41:24.382Z,13.20
2017-08-05T03:43:52.686Z,13.20
2017-08-05T03:46:20.264Z,13.20
2017-08-05T03:48:47.796Z,13.10
2017-08-05T03:51:15.315Z,13.00
2017-08-05T03:53:42.852Z,12.90
2017-08-05T03:56:10.367Z,13.00
2017-08-05T03:58:37.909Z,13.10
2017-08-05T04:01:05.431Z,13.10
2017-08-05T04:03:32.945Z,13.20
2017-08-05T04:06:00.487Z,13.30
2017-08-05T04:08:28.011Z,13.40
2017-08-05T04:10:55.550Z,13.50
2017-08-05T04:13:23.075Z,13.60
2017-08-05T04:15:51.380Z,13.60
2017-08-05T04:18:18.903Z,13.60
2017-08-05T04:20:46.434Z,13.60
2017-08-05T04:23:13.950Z,13.70
2017-08-05T04:25:41.503Z,13.70
2017-08-05T04:28:09.014Z,13.80
2017-08-05T04:30:36.526Z,13.80
2017-08-05T04:33:04.062Z,13.80
2017-08-05T04:35:31.577Z,13.90
2017-08-05T04:37:59.880Z,13.90
2017-08-05T04:40:27.403Z,13.90
2017-08-05T04:42:54.939Z,13.90
2017-08-05T04:45:22.535Z,13.90
2017-08-05T04:47:50.071Z,13.80
2017-08-05T04:50:18.354Z,13.90
2017-08-05T04:52:46.650Z,14.10
2017-08-05T04:55:14.166Z,14.10
2017-08-05T04:57:41.721Z,14.40
2017-08-05T05:00:09.233Z,14.60
2017-08-05T05:02:36.751Z,14.90
2017-08-05T05:05:04.282Z,15.60
2017-08-05T05:07:31.799Z,15.80
2017-08-05T05:09:59.342Z,16.20
2017-08-05T05:12:26.860Z,17.40
2017-08-05T05:14:54.414Z,18.90
2017-08-05T05:17:21.935Z,20.30
2017-08-05T05:19:49.470Z,21.30
2017-08-05T05:22:16.990Z,21.50
2017-08-05T05:24:44.526Z,20.60
2017-08-05T05:27:12.049Z,19.50
2017-08-05T05:29:39.589Z,18.60
2017-08-05T05:32:07.874Z,17.60
2017-08-05T05:34:36.153Z,17.40
2017-08-05T05:37:04.454Z,17.60
2017-08-05T05:39:31.972Z,17.60
2017-08-05T05:41:59.511Z,17.80
2017-08-05T05:44:27.035Z,19.10
2017-08-05T05:46:54.571Z,20.90
2017-08-05T05:49:22.860Z,23.40
2017-08-05T05:51:50.397Z,23.40
2017-08-05T05:54:17.919Z,24.30
2017-08-05T05:56:45.450Z,25.10
2017-08-05T05:59:12.962Z,25.70
2017-08-05T06:01:40.511Z,26.00
2017-08-05T06:04:08.802Z,26.40
2017-08-05T06:06:36.319Z,26.40
2017-08-05T06:09:03.857Z,26.60
2017-08-05T06:11:31.379Z,26.80
2017-08-05T06:13:58.914Z,27.10
2017-08-05T06:16:26.431Z,27.20
2017-08-05T06:18:53.974Z,27.40
2017-08-05T06:21:21.500Z,27.50
2017-08-05T06:23:49.814Z,27.90
2017-08-05T06:26:17.335Z,27.80
2017-08-05T06:28:45.672Z,28.50
2017-08-05T06:31:15.090Z,28.50
2017-08-05T06:33:43.853Z,28.90
2017-08-05T06:36:11.698Z,28.80
2017-08-05T06:38:39.309Z,29.10
2017-08-05T06:41:06.948Z,29.50
2017-08-05T06:43:34.488Z,29.70
2017-08-05T06:46:02.079Z,29.60
2017-08-05T06:48:29.615Z,29.40
2017-08-05T06:50:58.010Z,29.30
2017-08-05T06:53:25.534Z,29.20
2017-08-05T06:55:53.092Z,28.60
2017-08-05T06:58:20.611Z,27.60
2017-08-05T07:00:48.127Z,27.20
2017-08-05T07:03:15.679Z,27.20
2017-08-05T07:05:43.195Z,27.40
2017-08-05T07:08:11.501Z,28.00
2017-08-05T07:10:39.028Z,28.00
2017-08-05T07:13:06.625Z,28.20
2017-08-05T07:15:34.153Z,28.20
2017-08-05T07:18:02.459Z,28.30
2017-08-05T07:20:29.975Z,28.30
2017-08-05T07:22:57.664Z,28.50
2017-08-05T07:25:26.014Z,28.40
2017-08-05T07:27:53.530Z,28.50
2017-08-05T07:30:21.081Z,28.60
2017-08-05T07:32:49.026Z,28.80
2017-08-05T07:35:16.616Z,28.70
2017-08-05T07:37:44.126Z,28.70
2017-08-05T07:40:32.507Z,28.50
2017-08-05T07:43:02.258Z,28.60
2017-08-05T07:45:29.800Z,28.80
2017-08-05T07:47:58.095Z,28.70
2017-08-05T07:50:25.643Z,28.70
2017-08-05T07:52:53.940Z,29.10
2017-08-05T07:55:24.661Z,29.00
2017-08-05T07:57:52.610Z,29.10
2017-08-05T08:00:20.135Z,29.00
2017-08-05T08:02:47.684Z,28.70
2017-08-05T08:05:15.198Z,28.40
2017-08-05T08:07:42.734Z,27.80
2017-08-05T08:10:10.255Z,27.80
2017-08-05T08:12:37.801Z,28.30
2017-08-05T08:15:05.328Z,28.20
2017-08-05T08:17:32.862Z,28.20
2017-08-05T08:20:00.377Z,28.10
2017-08-05T08:22:27.930Z,27.50
2017-08-05T08:24:55.452Z,27.00
2017-08-05T08:27:22.967Z,26.60
2017-08-05T08:29:50.512Z,25.90
2017-08-05T08:32:18.032Z,25.40
2017-08-05T08:34:45.586Z,25.10
2017-08-05T08:37:13.104Z,25.10
2017-08-05T08:39:40.651Z,25.20
2017-08-05T08:42:08.186Z,25.20
2017-08-05T08:44:36.498Z,24.90
2017-08-05T08:47:04.018Z,24.90
2017-08-05T08:49:31.554Z,24.80
2017-08-05T08:51:59.072Z,24.70
2017-08-05T08:54:26.629Z,24.70
2017-08-05T08:56:54.146Z,24.80
2017-08-05T08:59:21.679Z,24.60
2017-08-05T09:01:49.214Z,24.50
2017-08-05T09:04:16.735Z,24.60
2017-08-05T09:06:44.270Z,24.60
2017-08-05T09:09:11.794Z,24.40
2017-08-05T09:11:39.331Z,24.40
2017-08-05T09:14:06.845Z,24.30
2017-08-05T09:16:34.381Z,24.20
2017-08-05T09:19:01.898Z,24.30
2017-08-05T09:21:30.290Z,24.50
2017-08-05T09:23:57.812Z,24.70
2017-08-05T09:26:26.131Z,25.20
2017-08-05T09:28:53.659Z,25.20
2017-08-05T09:31:21.937Z,26.40
2017-08-05T09:33:50.250Z,27.20
2017-08-05T09:36:17.771Z,27.20
2017-08-05T09:38:46.076Z,28.60
2017-08-05T09:41:13.676Z,28.60
2017-08-05T09:43:41.325Z,28.90
2017-08-05T09:46:08.842Z,28.60
2017-08-05T09:48:36.382Z,28.20
2017-08-05T09:51:04.665Z,27.10
2017-08-05T09:53:32.966Z,26.90
2017-08-05T09:56:00.488Z,26.90
2017-08-05T09:58:28.033Z,26.50
2017-08-05T10:00:55.554Z,26.80
2017-08-05T10:03:23.081Z,26.80
2017-08-05T10:05:51.387Z,26.70
2017-08-05T10:08:18.909Z,26.70
2017-08-05T10:10:46.448Z,27.10
2017-08-05T10:13:13.967Z,27.40
2017-08-05T10:15:41.510Z,27.60
2017-08-05T10:18:09.029Z,28.10
2017-08-05T10:20:36.561Z,28.20
2017-08-05T10:23:04.078Z,28.10
2017-08-05T10:25:31.619Z,28.10
2017-08-05T10:27:59.136Z,28.10
2017-08-05T10:30:26.670Z,28.30
2017-08-05T10:32:54.193Z,28.00
2017-08-05T10:35:21.742Z,27.70
2017-08-05T10:37:49.266Z,27.40
2017-08-05T10:40:17.551Z,26.80
2017-08-05T10:42:45.096Z,26.70
2017-08-05T10:45:13.397Z,27.80
2017-08-05T10:47:40.942Z,27.80
2017-08-05T10:50:09.225Z,28.10
2017-08-05T10:52:36.772Z,28.10
2017-08-05T10:55:04.297Z,28.00
2017-08-05T10:57:31.838Z,27.90
2017-08-05T11:00:00.119Z,27.10
2017-08-05T11:02:28.422Z,27.00
2017-08-05T11:04:55.943Z,27.00
2017-08-05T11:07:23.482Z,27.10
2017-08-05T11:09:51.008Z,26.80
2017-08-05T11:12:18.544Z,26.60
2017-08-05T11:14:46.827Z,26.10
2017-08-05T11:17:16.002Z,25.90
2017-08-05T11:19:43.520Z,25.80
2017-08-05T11:22:11.038Z,25.70
2017-08-05T11:24:39.342Z,25.30
2017-08-05T11:27:06.861Z,25.30
2017-08-05T11:29:34.402Z,25.10
2017-08-05T11:32:01.915Z,24.90
2017-08-05T11:34:29.458Z,24.80
2017-08-05T11:36:57.738Z,24.30
2017-08-05T11:39:26.038Z,24.10
2017-08-05T11:41:53.554Z,24.10
2017-08-05T11:44:21.088Z,23.90
2017-08-05T11:46:48.606Z,23.80
2017-08-05T11:49:16.148Z,23.70
2017-08-05T11:51:43.674Z,23.90
2017-08-05T11:54:11.211Z,24.30
2017-08-05T11:56:38.731Z,24.90
2017-08-05T11:59:06.269Z,25.30
2017-08-05T12:01:33.798Z,25.40
2017-08-05T12:04:02.083Z,25.80
2017-08-05T12:06:30.388Z,26.00
2017-08-05T12:08:57.909Z,26.00
2017-08-05T12:11:25.449Z,26.20
2017-08-05T12:13:52.979Z,26.70
2017-08-05T12:16:20.519Z,27.40
2017-08-05T12:18:48.037Z,28.10
2017-08-05T12:21:15.588Z,28.00
2017-08-05T12:23:43.873Z,27.60
2017-08-05T12:26:11.409Z,27.50
2017-08-05T12:28:38.936Z,26.70
2017-08-05T12:31:06.475Z,26.20
2017-08-05T12:33:33.991Z,26.20
2017-08-05T12:36:01.538Z,26.10
2017-08-05T12:38:29.823Z,25.80
2017-08-05T12:40:58.102Z,25.60
2017-08-05T12:43:26.409Z,25.30
2017-08-05T12:45:53.927Z,25.30
2017-08-05T12:48:21.475Z,25.10
2017-08-05T12:50:48.991Z,24.90
2017-08-05T12:53:17.300Z,24.60
2017-08-05T12:55:44.825Z,24.60
2017-08-05T12:58:12.366Z,24.50
2017-08-05T13:00:39.891Z,24.30
2017-08-05T13:03:07.431Z,24.10
2017-08-05T13:05:34.955Z,23.90
2017-08-05T13:08:02.471Z,23.80
2017-08-05T13:10:30.022Z,23.70
2017-08-05T13:12:57.538Z,23.60
2017-08-05T13:15:25.074Z,23.50
2017-08-05T13:17:52.591Z,23.20
2017-08-05T13:20:20.130Z,23.00
2017-08-05T13:22:47.647Z,22.90
2017-08-05T13:25:15.187Z,22.90
2017-08-05T13:27:42.703Z,23.00
2017-08-05T13:30:10.247Z,23.10
2017-08-05T13:32:37.770Z,23.10
2017-08-05T13:35:05.317Z,23.20
2017-08-05T13:37:32.843Z,23.10
2017-08-05T13:40:00.363Z,23.00
2017-08-05T13:42:28.666Z,22.80
2017-08-05T13:44:56.194Z,22.80
2017-08-05T13:47:23.739Z,22.70
2017-08-05T13:49:52.023Z,22.80
2017-08-05T13:52:19.582Z,22.80
2017-08-05T13:54:47.102Z,22.90
2017-08-05T13:57:15.097Z,22.90
2017-08-05T13:59:43.382Z,23.00
2017-08-05T14:02:10.930Z,23.00
2017-08-05T14:04:38.451Z,23.10
2017-08-05T14:07:05.972Z,23.20
2017-08-05T14:09:33.509Z,23.40
2017-08-05T14:12:01.032Z,23.60
2017-08-05T14:14:28.570Z,23.90
2017-08-05T14:16:56.098Z,24.10
2017-08-05T14:19:23.634Z,24.20
2017-08-05T14:21:51.150Z,24.30
2017-08-05T14:24:18.691Z,24.40
2017-08-05T14:26:46.230Z,24.50
2017-08-05T14:29:13.783Z,24.70
2017-08-05T14:31:41.303Z,24.80
2017-08-05T14:34:08.827Z,25.10
2017-08-05T14:36:36.365Z,25.40
2017-08-05T14:39:03.882Z,25.50
2017-08-05T14:41:31.419Z,25.20
2017-08-05T14:43:58.940Z,25.40
2017-08-05T14:46:27.244Z,25.50
2017-08-05T14:48:54.761Z,25.50
2017-08-05T14:51:23.065Z,25.10
2017-08-05T14:53:50.577Z,25.00
2017-08-05T14:56:18.109Z,24.80
2017-08-05T14:58:45.626Z,24.50
2017-08-05T15:01:13.174Z,24.20
2017-08-05T15:03:40.694Z,23.90
2017-08-05T15:06:08.216Z,23.60
2017-08-05T15:08:35.762Z,23.40
2017-08-05T15:11:03.282Z,23.20
2017-08-05T15:13:30.871Z,23.10
2017-08-05T15:15:58.394Z,23.00
2017-08-05T15:18:25.939Z,22.50
2017-08-05T15:20:53.473Z,22.00
2017-08-05T15:23:21.027Z,21.70
2017-08-05T15:25:48.547Z,21.60
2017-08-05T15:28:16.078Z,21.60
2017-08-05T15:30:44.380Z,22.00
2017-08-05T15:33:11.894Z,22.00
2017-08-05T15:35:39.438Z,22.30
2017-08-05T15:38:06.965Z,22.50
2017-08-05T15:40:34.501Z,22.60
2017-08-05T15:43:02.024Z,22.60
2017-08-05T15:45:29.566Z,22.70
2017-08-05T15:47:57.085Z,22.80
2017-08-05T15:50:24.622Z,22.90
2017-08-05T15:52:52.907Z,23.00
2017-08-05T15:55:20.425Z,23.00
2017-08-05T15:57:47.966Z,23.00
2017-08-05T16:00:15.492Z,23.00
2017-08-05T16:02:43.033Z,23.00
2017-08-05T16:05:10.552Z,22.90
2017-08-05T16:07:38.092Z,22.90
2017-08-05T16:10:05.615Z,22.70
2017-08-05T16:12:33.149Z,22.50
2017-08-05T16:15:01.436Z,22.60
2017-08-05T16:17:28.975Z,22.50
2017-08-05T16:19:57.267Z,22.70
2017-08-05T16:22:24.815Z,22.70
2017-08-05T16:24:52.335Z,22.90
2017-08-05T16:27:19.855Z,22.90
2017-08-05T16:29:48.159Z,22.80
2017-08-05T16:32:15.682Z,22.80
2017-08-05T16:34:43.229Z,22.90
2017-08-05T16:37:10.754Z,22.90
2017-08-05T16:39:38.291Z,22.90
2017-08-05T16:42:05.810Z,22.90
2017-08-05T16:44:33.346Z,22.80
2017-08-05T16:47:00.858Z,22.90
2017-08-05T16:49:29.163Z,23.10
2017-08-05T16:51:56.678Z,23.10
2017-08-05T16:54:24.222Z,23.10
2017-08-05T16:56:52.627Z,23.00
2017-08-05T16:59:20.146Z,22.90
2017-08-05T17:01:47.706Z,22.80
2017-08-05T17:04:15.253Z,22.70
2017-08-05T17:06:42.795Z,22.50
2017-08-05T17:09:10.335Z,22.40
2017-08-05T17:11:37.875Z,22.30
2017-08-05T17:14:05.398Z,22.20
2017-08-05T17:16:32.939Z,22.20
2017-08-05T17:19:00.457Z,22.20
2017-08-05T17:21:27.994Z,22.20
2017-08-05T17:23:55.509Z,22.10
2017-08-05T17:26:23.051Z,22.00
2017-08-05T17:28:51.356Z,21.80
2017-08-05T17:31:18.876Z,21.80
2017-08-05T17:33:46.409Z,21.80
2017-08-05T17:36:14.693Z,21.60
2017-08-05T17:38:43.004Z,21.50
2017-08-05T17:41:10.532Z,21.40
2017-08-05T17:43:38.078Z,21.40
2017-08-05T17:46:06.393Z,21.30
2017-08-05T17:48:33.930Z,21.20
2017-08-05T17:51:02.219Z,21.10
2017-08-05T17:53:29.784Z,21.10
2017-08-05T17:55:57.310Z,21.10
2017-08-05T17:58:24.835Z,21.10
2017-08-05T18:00:52.376Z,21.10
2017-08-05T18:03:19.893Z,21.10
2017-08-05T18:05:47.432Z,21.10
2017-08-05T18:08:14.958Z,21.10
2017-08-05T18:10:42.503Z,21.00
2017-08-05T18:13:10.024Z,20.90
2017-08-05T18:15:37.573Z,20.80
2017-08-05T18:18:05.091Z,20.70
2017-08-05T18:20:32.634Z,20.60
2017-08-05T18:23:00.151Z,20.60
2017-08-05T18:25:27.698Z,20.60
2017-08-05T18:27:55.226Z,20.60
2017-08-05T18:30:23.537Z,20.50
2017-08-05T18:32:51.061Z,20.50
2017-08-05T18:35:18.575Z,20.50
2017-08-05T18:37:46.113Z,20.50
2017-08-05T18:40:13.636Z,20.50
2017-08-05T18:42:41.185Z,20.50
2017-08-05T18:45:08.707Z,20.40
2017-08-05T18:47:36.247Z,20.50
2017-08-05T18:50:04.539Z,20.30
2017-08-05T18:52:32.842Z,20.30
2017-08-05T18:55:00.362Z,20.30
2017-08-05T18:57:27.902Z,20.20
2017-08-05T18:59:56.206Z,19.90
2017-08-05T19:02:23.763Z,19.90
2017-08-05T19:04:51.288Z,19.90
2017-08-05T19:07:18.806Z,19.80
2017-08-05T19:09:46.339Z,19.70
2017-08-05T19:12:13.864Z,19.60
2017-08-05T19:14:41.402Z,19.60
2017-08-05T19:17:09.686Z,19.50
2017-08-05T19:19:37.260Z,19.50
2017-08-05T19:22:04.795Z,19.40
2017-08-05T19:24:33.112Z,19.20
2017-08-05T19:27:00.639Z,19.20
2017-08-05T19:29:28.942Z,19.00
2017-08-05T19:31:56.463Z,19.00
2017-08-05T19:34:24.000Z,18.90
2017-08-05T19:36:51.526Z,18.80
2017-08-05T19:39:19.846Z,18.60
2017-08-05T19:41:47.367Z,18.50
2017-08-05T19:44:14.886Z,18.50
2017-08-05T19:46:42.423Z,18.40
2017-08-05T19:49:09.956Z,18.30
2017-08-05T19:51:38.263Z,18.30
2017-08-05T19:54:05.790Z,18.20
2017-08-05T19:56:34.099Z,18.10
2017-08-05T19:59:01.623Z,18.10
2017-08-05T20:01:29.172Z,18.00
2017-08-05T20:03:56.688Z,18.00
2017-08-05T20:06:24.231Z,17.90
2017-08-05T20:08:52.519Z,17.70
2017-08-05T20:11:20.035Z,17.70
2017-08-05T20:13:47.583Z,17.60
2017-08-05T20:16:15.102Z,17.50
2017-08-05T20:18:42.643Z,17.50
2017-08-05T20:21:10.921Z,17.30
2017-08-05T20:23:39.219Z,17.20
2017-08-05T20:26:06.740Z,17.10
2017-08-05T20:28:35.048Z,17.10
2017-08-05T20:31:02.572Z,17.00
2017-08-05T20:33:30.106Z,17.00
2017-08-05T20:35:57.619Z,16.90
2017-08-05T20:38:25.159Z,16.80
2017-08-05T20:40:52.674Z,16.70
2017-08-05T20:43:20.955Z,16.50
2017-08-05T20:45:49.255Z,16.40
2017-08-05T20:48:16.782Z,16.40
2017-08-05T20:50:45.083Z,16.40
2017-08-05T20:53:12.605Z,16.30
2017-08-05T20:55:40.142Z,16.30
2017-08-05T20:58:07.667Z,16.30
2017-08-05T21:00:35.210Z,16.20
2017-08-05T21:03:03.492Z,16.00
2017-08-05T21:05:31.795Z,16.00
2017-08-05T21:07:59.313Z,16.00
2017-08-05T21:10:26.845Z,15.90
2017-08-05T21:12:54.367Z,15.80
2017-08-05T21:15:21.916Z,15.70
2017-08-05T21:17:49.969Z,15.70
2017-08-05T21:20:18.283Z,15.60
2017-08-05T21:22:46.113Z,15.60
2017-08-05T21:25:13.651Z,15.40
2017-08-05T21:27:41.170Z,15.30
2017-08-05T21:30:09.449Z,15.30
2017-08-05T21:32:37.779Z,15.30
2017-08-05T21:35:05.297Z,15.30
2017-08-05T21:37:32.834Z,15.30
2017-08-05T21:40:01.118Z,15.30
2017-08-05T21:42:29.427Z,15.30
2017-08-05T21:44:56.948Z,15.30
2017-08-05T21:47:24.484Z,15.20
2017-08-05T21:49:52.014Z,15.10
2017-08-05T21:52:19.555Z,15.00
2017-08-05T21:54:47.077Z,14.90
2017-08-05T21:57:15.424Z,14.90
2017-08-05T21:59:42.951Z,14.90
2017-08-05T22:02:10.494Z,14.90
2017-08-05T22:04:38.015Z,14.90
2017-08-05T22:07:05.556Z,14.90
2017-08-05T22:09:33.865Z,14.60
2017-08-05T22:12:01.386Z,14.60
2017-08-05T22:14:28.923Z,14.50
2017-08-05T22:16:56.439Z,14.50
2017-08-05T22:19:23.975Z,14.40
2017-08-05T22:21:52.270Z,14.40
2017-08-05T22:24:19.806Z,14.40
2017-08-05T22:26:47.332Z,14.40
2017-08-05T22:29:14.867Z,14.40
2017-08-05T22:31:43.159Z,14.30
2017-08-05T22:34:10.698Z,14.30
2017-08-05T22:36:38.213Z,14.30
2017-08-05T22:39:05.755Z,14.30
2017-08-05T22:41:33.270Z,14.30
2017-08-05T22:44:00.810Z,14.30
2017-08-05T22:46:28.326Z,14.30
2017-08-05T22:48:56.607Z,14.10
2017-08-05T22:51:24.146Z,14.00
2017-08-05T22:53:51.666Z,14.00
2017-08-05T22:56:19.202Z,14.00
2017-08-05T22:58:46.718Z,14.10
2017-08-05T23:01:14.258Z,14.10
2017-08-05T23:03:41.770Z,14.10
2017-08-05T23:06:09.310Z,14.10
2017-08-05T23:08:37.597Z,13.70
2017-08-05T23:11:05.138Z,13.70
2017-08-05T23:13:33.434Z,13.60
2017-08-05T23:16:00.966Z,13.60
2017-08-05T23:18:28.486Z,13.70
2017-08-05T23:20:56.026Z,13.70
2017-08-05T23:23:23.552Z,13.70
2017-08-05T23:25:51.833Z,13.70
2017-08-05T23:28:20.144Z,13.50
2017-08-05T23:30:47.667Z,13.50
2017-08-05T23:33:15.975Z,13.30
2017-08-05T23:35:43.492Z,13.30
2017-08-05T23:38:11.030Z,13.30
2017-08-05T23:40:38.546Z,13.40
2017-08-05T23:43:06.083Z,13.40
2017-08-05T23:45:33.599Z,13.50
2017-08-05T23:48:01.139Z,13.50
2017-08-05T23:50:28.663Z,13.30
2017-08-05T23:52:56.194Z,13.30
2017-08-05T23:55:23.709Z,13.10
2017-08-05T23:57:51.245Z,13.00
